Wetterdaten: Woche 26.02.18 - 04.03.18 (KW9)
Datum Zeit Temp. Aussen Temp. o. S. +5cm Feuchte Auss BlattFeu 1 Luftdruck Regen Sonnenschein Regendauer Solar Windben Empfang
26.02.2018 00:00 -4,2 C -4,4 C -6,0 C 72 % 0 lf 1028,4 hPa 0,0 l/m 0,00 h 0,00 h 0 W/m 26,3 km/h (4 Bft) 94,01 %
26.02.2018 01:00 -4,5 C -4,9 C -6,4 C 75 % 0 lf 1028,6 hPa 0,0 l/m 0,00 h 0,00 h 0 W/m 18,2 km/h (3 Bft) 96,79 %
26.02.2018 02:00 -5,0 C -5,7 C -7,0 C 78 % 0 lf 1028,7 hPa 0,0 l/m 0,00 h 0,00 h 0 W/m 12,3 km/h (3 Bft) 96,91 %
26.02.2018 03:00 -5,4 C -6,0 C -7,0 C 81 % 0 lf 1028,8 hPa 0,0 l/m 0,00 h 0,00 h 0 W/m 12,6 km/h (3 Bft) 97,08 %
26.02.2018 04:00 -4,6 C -4,5 C -5,1 C 85 % 0 lf 1028,9 hPa 0,0 l/m 0,00 h 0,00 h 0 W/m 16,2 km/h (3 Bft) 94,66 %
26.02.2018 05:00 -4,2 C -4,4 C -5,1 C 86 % 0 lf 1028,7 hPa 0,0 l/m 0,00 h 0,00 h 0 W/m 15,8 km/h (3 Bft) 96,22 %
26.02.2018 06:00 -4,1 C -4,3 C -5,0 C 87 % 0 lf 1028,5 hPa 0,0 l/m 0,00 h 0,00 h 0 W/m 18,4 km/h (3 Bft) 98,43 %
26.02.2018 07:00 -4,0 C -3,9 C -4,4 C 83 % 0 lf 1028,5 hPa 0,0 l/m 0,10 h 0,00 h 17 W/m 24,8 km/h (4 Bft) 94,63 %
26.02.2018 08:00 -4,0 C -3,4 C -4,4 C 80 % 0 lf 1028,9 hPa 0,0 l/m 0,73 h 0,00 h 101 W/m 34,2 km/h (5 Bft) 97,32 %
26.02.2018 09:00 -3,5 C -1,6 C -3,2 C 77 % 0 lf 1029,0 hPa 0,0 l/m 0,63 h 0,00 h 164 W/m 34,9 km/h (5 Bft) 95,29 %
26.02.2018 10:00 -2,4 C 2,7 C -1,8 C 70 % 0 lf 1028,7 hPa 0,0 l/m 0,93 h 0,00 h 431 W/m 34,8 km/h (5 Bft) 96,31 %
26.02.2018 11:00 -1,4 C 2,6 C -0,2 C 63 % 0 lf 1028,3 hPa 0,0 l/m 0,43 h 0,00 h 334 W/m 34,2 km/h (5 Bft) 97,51 %
26.02.2018 12:00 -0,6 C 3,8 C -0,3 C 61 % 0 lf 1027,8 hPa 0,0 l/m 0,70 h 0,00 h 425 W/m 36,8 km/h (5 Bft) 95,06 %
26.02.2018 13:00 -0,9 C 1,3 C -0,6 C 60 % 0 lf 1027,3 hPa 0,0 l/m 0,23 h 0,00 h 236 W/m 36,4 km/h (5 Bft) 95,98 %
26.02.2018 14:00 -0,7 C 3,0 C -0,3 C 61 % 0 lf 1026,6 hPa 0,0 l/m 0,83 h 0,00 h 358 W/m 37,0 km/h (5 Bft) 97,41 %
26.02.2018 15:00 -0,1 C 3,2 C -0,8 C 56 % 0 lf 1026,3 hPa 0,0 l/m 0,83 h 0,00 h 319 W/m 40,0 km/h (6 Bft) 95,07 %
26.02.2018 16:00 -1,4 C -0,5 C -2,2 C 62 % 0 lf 1026,0 hPa 0,0 l/m 0,57 h 0,00 h 137 W/m 28,8 km/h (5 Bft) 95,95 %
26.02.2018 17:00 -1,9 C -2,1 C -3,0 C 61 % 0 lf 1025,7 hPa 0,0 l/m 0,17 h 0,00 h 34 W/m 22,2 km/h (4 Bft) 95,47 %
26.02.2018 18:00 -2,5 C -3,0 C -4,0 C 62 % 0 lf 1025,5 hPa 0,0 l/m 0,00 h 0,00 h 7 W/m 26,8 km/h (4 Bft) 97,15 %
26.02.2018 19:00 -2,8 C -3,3 C -4,3 C 68 % 0 lf 1025,5 hPa 0,0 l/m 0,00 h 0,00 h 0 W/m 25,0 km/h (4 Bft) 96,73 %
26.02.2018 20:00 -3,6 C -4,3 C -5,3 C 75 % 0 lf 1025,1 hPa 0,0 l/m 0,00 h 0,00 h 0 W/m 14,8 km/h (3 Bft) 95,73 %
26.02.2018 21:00 -4,5 C -5,1 C -6,0 C 79 % 0 lf 1025,0 hPa 0,0 l/m 0,00 h 0,00 h 0 W/m 14,2 km/h (3 Bft) 95,02 %
26.02.2018 22:00 -4,9 C -5,3 C -5,9 C 82 % 0 lf 1024,7 hPa 0,0 l/m 0,00 h 0,00 h 0 W/m 14,2 km/h (3 Bft) 98,33 %
26.02.2018 23:00 -4,7 C -4,9 C -5,8 C 82 % 0 lf 1024,2 hPa 0,0 l/m 0,00 h 0,00 h 0 W/m 13,8 km/h (3 Bft) 96,58 %
27.02.2018 00:00 -5,0 C -5,4 C -6,0 C 82 % 0 lf 1023,8 hPa 0,0 l/m 0,00 h 0,00 h 0 W/m 18,2 km/h (3 Bft) 95,28 %
27.02.2018 01:00 -4,7 C -4,9 C -5,9 C 80 % 0 lf 1023,6 hPa 0,0 l/m 0,00 h 0,00 h 0 W/m 25,2 km/h (4 Bft) 95,87 %
27.02.2018 02:00 -5,2 C -5,9 C -6,9 C 75 % 0 lf 1023,5 hPa 0,0 l/m 0,00 h 0,00 h 0 W/m 32,1 km/h (5 Bft) 96,51 %
27.02.2018 03:00 -5,7 C -6,2 C -7,3 C 75 % 0 lf 1023,1 hPa 0,0 l/m 0,00 h 0,00 h 0 W/m 28,3 km/h (4 Bft) 96,69 %
27.02.2018 04:00 -6,1 C -6,8 C -7,8 C 74 % 0 lf 1022,9 hPa 0,0 l/m 0,00 h 0,00 h 0 W/m 24,5 km/h (4 Bft) 98,06 %
27.02.2018 05:00 -6,5 C -7,4 C -8,5 C 75 % 0 lf 1022,7 hPa 0,0 l/m 0,00 h 0,00 h 0 W/m 17,4 km/h (3 Bft) 95,48 %
27.02.2018 06:00 -7,1 C -8,4 C -9,3 C 77 % 0 lf 1022,7 hPa 0,0 l/m 0,00 h 0,00 h 0 W/m 9,5 km/h (2 Bft) 94,86 %
27.02.2018 07:00 -7,6 C -8,6 C -9,4 C 80 % 0 lf 1022,7 hPa 0,0 l/m 0,03 h 0,00 h 17 W/m 9,8 km/h (2 Bft) 97,36 %
27.02.2018 08:00 -7,1 C -6,2 C -7,6 C 82 % 0 lf 1022,6 hPa 0,0 l/m 1,00 h 0,00 h 113 W/m 18,9 km/h (3 Bft) 97,73 %
27.02.2018 09:00 -5,2 C 2,6 C -4,0 C 78 % 0 lf 1022,5 hPa 0,0 l/m 1,00 h 0,00 h 280 W/m 25,7 km/h (4 Bft) 94,94 %
27.02.2018 10:00 -3,3 C 5,6 C -2,5 C 66 % 0 lf 1022,1 hPa 0,0 l/m 1,00 h 0,00 h 412 W/m 28,9 km/h (5 Bft) 97,89 %
27.02.2018 11:00 -1,8 C 5,8 C 0,5 C 56 % 0 lf 1021,5 hPa 0,0 l/m 1,00 h 0,00 h 500 W/m 31,8 km/h (5 Bft) 96,63 %
27.02.2018 12:00 -0,7 C 7,1 C -1,2 C 53 % 0 lf 1021,0 hPa 0,0 l/m 1,00 h 0,00 h 555 W/m 30,0 km/h (5 Bft) 97,06 %
27.02.2018 13:00 -0,2 C 5,5 C -0,9 C 53 % 0 lf 1020,5 hPa 0,0 l/m 0,80 h 0,00 h 454 W/m 32,0 km/h (5 Bft) 95,73 %
27.02.2018 14:00 0,2 C 4,7 C -0,7 C 52 % 0 lf 1019,7 hPa 0,0 l/m 0,73 h 0,00 h 391 W/m 29,2 km/h (5 Bft) 96,25 %
27.02.2018 15:00 -0,8 C 2,1 C -1,4 C 56 % 0 lf 1019,4 hPa 0,0 l/m 0,60 h 0,00 h 242 W/m 28,7 km/h (4 Bft) 96,53 %
27.02.2018 16:00 -1,2 C 0,2 C -2,1 C 57 % 0 lf 1019,0 hPa 0,0 l/m 0,87 h 0,00 h 166 W/m 27,8 km/h (4 Bft) 96,04 %
27.02.2018 17:00 -2,0 C -2,2 C -3,5 C 57 % 0 lf 1018,8 hPa 0,0 l/m 0,17 h 0,00 h 42 W/m 23,4 km/h (4 Bft) 95,72 %
27.02.2018 18:00 -2,8 C -3,5 C -5,1 C 60 % 0 lf 1019,0 hPa 0,0 l/m 0,00 h 0,00 h 7 W/m 17,9 km/h (3 Bft) 96,97 %
27.02.2018 19:00 -3,6 C -4,3 C -6,0 C 62 % 0 lf 1018,9 hPa 0,0 l/m 0,00 h 0,00 h 0 W/m 15,6 km/h (3 Bft) 95,15 %
27.02.2018 20:00 -4,3 C -5,5 C -7,0 C 65 % 0 lf 1018,8 hPa 0,0 l/m 0,00 h 0,00 h 0 W/m 13,2 km/h (3 Bft) 98,65 %
27.02.2018 21:00 -4,9 C -5,9 C -7,6 C 68 % 0 lf 1019,0 hPa 0,0 l/m 0,00 h 0,00 h 0 W/m 11,2 km/h (2 Bft) 96,53 %
27.02.2018 22:00 -5,4 C -6,1 C -7,9 C 71 % 0 lf 1019,0 hPa 0,0 l/m 0,00 h 0,00 h 0 W/m 10,5 km/h (2 Bft) 96,80 %
27.02.2018 23:00 -5,6 C -6,6 C -8,0 C 76 % 0 lf 1018,9 hPa 0,0 l/m 0,00 h 0,00 h 0 W/m 14,0 km/h (3 Bft) 93,31 %
28.02.2018 00:00 -5,8 C -6,0 C -7,2 C 80 % 0 lf 1018,9 hPa 0,0 l/m 0,00 h 0,00 h 0 W/m 14,7 km/h (3 Bft) 98,35 %
28.02.2018 01:00 -5,5 C -5,9 C -7,1 C 83 % 0 lf 1019,2 hPa 0,0 l/m 0,00 h 0,00 h 0 W/m 13,3 km/h (3 Bft) 96,99 %
28.02.2018 02:00 -6,0 C -6,2 C -7,8 C 82 % 0 lf 1019,3 hPa 0,0 l/m 0,00 h 0,00 h 0 W/m 15,0 km/h (3 Bft) 95,29 %
28.02.2018 03:00 -6,2 C -6,4 C -7,8 C 71 % 0 lf 1019,3 hPa 0,0 l/m 0,00 h 0,00 h 0 W/m 19,1 km/h (3 Bft) 97,52 %
28.02.2018 04:00 -6,5 C -7,0 C -8,2 C 66 % 0 lf 1019,3 hPa 0,0 l/m 0,00 h 0,00 h 0 W/m 15,8 km/h (3 Bft) 91,67 %
28.02.2018 05:00 -7,3 C -8,4 C -9,5 C 68 % 0 lf 1019,9 hPa 0,0 l/m 0,00 h 0,00 h 0 W/m 12,7 km/h (3 Bft) 96,79 %
28.02.2018 06:00 -8,1 C -8,9 C -9,9 C 72 % 0 lf 1020,0 hPa 0,0 l/m 0,00 h 0,00 h 0 W/m 16,5 km/h (3 Bft) 95,99 %
28.02.2018 07:00 -8,3 C -8,6 C -9,4 C 73 % 0 lf 1020,4 hPa 0,0 l/m 0,00 h 0,00 h 18 W/m 19,4 km/h (3 Bft) 98,90 %
28.02.2018 08:00 -7,9 C -7,0 C -8,4 C 74 % 0 lf 1020,6 hPa 0,0 l/m 0,97 h 0,00 h 113 W/m 21,2 km/h (4 Bft) 92,53 %
28.02.2018 09:00 -6,1 C -1,2 C -5,1 C 68 % 0 lf 1020,6 hPa 0,0 l/m 1,00 h 0,00 h 271 W/m 23,1 km/h (4 Bft) 98,58 %
28.02.2018 10:00 -4,4 C 0,7 C -3,7 C 59 % 0 lf 1020,5 hPa 0,0 l/m 1,00 h 0,00 h 397 W/m 25,9 km/h (4 Bft) 98,22 %
28.02.2018 11:00 -3,4 C 2,2 C -1,1 C 54 % 0 lf 1020,1 hPa 0,0 l/m 1,00 h 0,00 h 487 W/m 27,5 km/h (4 Bft) 95,66 %
28.02.2018 12:00 -2,2 C 3,9 C -1,9 C 51 % 0 lf 1019,4 hPa 0,0 l/m 1,00 h 0,00 h 561 W/m 29,1 km/h (5 Bft) 95,22 %
28.02.2018 13:00 -2,0 C 1,9 C -2,2 C 52 % 0 lf 1019,1 hPa 0,0 l/m 0,57 h 0,00 h 373 W/m 30,7 km/h (5 Bft) 94,86 %
28.02.2018 14:00 -1,9 C 3,1 C -2,3 C 51 % 0 lf 1018,4 hPa 0,0 l/m 0,90 h 0,00 h 395 W/m 35,8 km/h (5 Bft) 97,73 %
28.02.2018 15:00 -1,7 C 2,9 C -2,9 C 49 % 0 lf 1017,7 hPa 0,0 l/m 1,00 h 0,00 h 327 W/m 40,9 km/h (6 Bft) 95,93 %
28.02.2018 16:00 -3,0 C -1,9 C -4,3 C 51 % 0 lf 1017,2 hPa 0,0 l/m 1,00 h 0,00 h 169 W/m 39,4 km/h (6 Bft) 96,49 %
28.02.2018 17:00 -4,6 C -4,8 C -5,9 C 56 % 0 lf 1016,8 hPa 0,0 l/m 0,17 h 0,00 h 44 W/m 41,1 km/h (6 Bft) 97,07 %
28.02.2018 18:00 -5,8 C -6,2 C -7,4 C 59 % 0 lf 1016,4 hPa 0,0 l/m 0,00 h 0,00 h 7 W/m 38,3 km/h (5 Bft) 95,99 %
28.02.2018 19:00 -6,6 C -7,0 C -8,0 C 61 % 0 lf 1016,2 hPa 0,0 l/m 0,00 h 0,00 h 0 W/m 33,9 km/h (5 Bft) 96,87 %
28.02.2018 20:00 -6,7 C -6,9 C -7,9 C 62 % 0 lf 1015,9 hPa 0,0 l/m 0,00 h 0,00 h 0 W/m 36,7 km/h (5 Bft) 98,09 %
28.02.2018 21:00 -6,8 C -7,0 C -7,9 C 63 % 0 lf 1015,8 hPa 0,0 l/m 0,00 h 0,00 h 0 W/m 33,3 km/h (5 Bft) 92,67 %
28.02.2018 22:00 -7,1 C -7,3 C -8,3 C 64 % 0 lf 1015,1 hPa 0,0 l/m 0,00 h 0,00 h 0 W/m 31,8 km/h (5 Bft) 97,80 %
28.02.2018 23:00 -7,6 C -7,8 C -8,7 C 67 % 0 lf 1014,5 hPa 0,0 l/m 0,00 h 0,00 h 0 W/m 26,0 km/h (4 Bft) 97,21 %
01.03.2018 00:00 -7,7 C -7,8 C -8,3 C 68 % 0 lf 1013,6 hPa 0,0 l/m 0,00 h 0,00 h 0 W/m 25,7 km/h (4 Bft) 96,53 %
01.03.2018 01:00 -7,7 C -7,8 C -8,9 C 68 % 0 lf 1013,0 hPa 0,0 l/m 0,00 h 0,00 h 0 W/m 24,5 km/h (4 Bft) 95,07 %
01.03.2018 02:00 -7,7 C -7,8 C -8,9 C 68 % 0 lf 1012,4 hPa 0,0 l/m 0,00 h 0,00 h 0 W/m 26,2 km/h (4 Bft) 96,06 %
01.03.2018 03:00 -7,8 C -7,8 C -8,9 C 68 % 0 lf 1011,3 hPa 0,0 l/m 0,00 h 0,00 h 0 W/m 26,6 km/h (4 Bft) 97,14 %
01.03.2018 04:00 -7,8 C -8,2 C -9,0 C 69 % 0 lf 1010,6 hPa 0,0 l/m 0,00 h 0,00 h 0 W/m 20,7 km/h (4 Bft) 95,82 %
01.03.2018 05:00 -7,3 C -7,1 C -8,0 C 66 % 0 lf 1010,0 hPa 0,0 l/m 0,00 h 0,00 h 0 W/m 33,2 km/h (5 Bft) 98,29 %
01.03.2018 06:00 -6,8 C -6,7 C -7,7 C 64 % 0 lf 1009,7 hPa 0,0 l/m 0,00 h 0,00 h 0 W/m 32,4 km/h (5 Bft) 92,71 %
01.03.2018 07:00 -6,8 C -6,7 C -7,8 C 64 % 0 lf 1009,4 hPa 0,0 l/m 0,00 h 0,00 h 14 W/m 34,0 km/h (5 Bft) 97,96 %
01.03.2018 08:00 -6,5 C -6,0 C -6,8 C 64 % 0 lf 1009,0 hPa 0,0 l/m 0,70 h 0,00 h 91 W/m 35,8 km/h (5 Bft) 96,94 %
01.03.2018 09:00 -5,3 C -3,7 C -4,9 C 60 % 0 lf 1008,3 hPa 0,0 l/m 0,67 h 0,00 h 177 W/m 43,2 km/h (6 Bft) 95,92 %
01.03.2018 10:00 -3,9 C -1,5 C -2,8 C 55 % 0 lf 1007,4 hPa 0,0 l/m 1,00 h 0,00 h 261 W/m 39,6 km/h (6 Bft) 95,60 %
01.03.2018 11:00 -1,4 C 2,8 C 0,6 C 47 % 0 lf 1006,6 hPa 0,0 l/m 1,00 h 0,00 h 472 W/m 42,1 km/h (6 Bft) 97,04 %
01.03.2018 12:00 -0,1 C 2,6 C 0,4 C 44 % 0 lf 1005,6 hPa 0,0 l/m 0,77 h 0,00 h 360 W/m 44,2 km/h (6 Bft) 94,94 %
01.03.2018 13:00 0,8 C 2,9 C 1,7 C 41 % 0 lf 1004,8 hPa 0,0 l/m 1,00 h 0,00 h 347 W/m 43,4 km/h (6 Bft) 97,52 %
01.03.2018 14:00 1,5 C 3,5 C 2,0 C 41 % 0 lf 1003,8 hPa 0,0 l/m 1,00 h 0,00 h 306 W/m 40,0 km/h (6 Bft) 96,66 %
01.03.2018 15:00 1,8 C 4,4 C 0,9 C 42 % 0 lf 1003,1 hPa 0,0 l/m 1,00 h 0,00 h 285 W/m 38,4 km/h (5 Bft) 94,31 %
01.03.2018 16:00 1,2 C 2,1 C 0,1 C 44 % 0 lf 1002,4 hPa 0,0 l/m 1,00 h 0,00 h 172 W/m 38,8 km/h (5 Bft) 97,79 %
01.03.2018 17:00 0,1 C -0,1 C -1,5 C 46 % 0 lf 1002,4 hPa 0,0 l/m 0,47 h 0,00 h 52 W/m 33,2 km/h (5 Bft) 97,08 %
01.03.2018 18:00 -1,0 C -1,5 C -2,9 C 49 % 0 lf 1002,5 hPa 0,0 l/m 0,00 h 0,00 h 8 W/m 29,4 km/h (5 Bft) 95,84 %
01.03.2018 19:00 -1,6 C -1,9 C -3,3 C 51 % 0 lf 1002,4 hPa 0,0 l/m 0,00 h 0,00 h 0 W/m 30,3 km/h (5 Bft) 96,49 %
01.03.2018 20:00 -2,1 C -2,4 C -3,8 C 52 % 0 lf 1002,3 hPa 0,0 l/m 0,00 h 0,00 h 0 W/m 29,4 km/h (5 Bft) 95,47 %
01.03.2018 21:00 -2,7 C -3,0 C -4,3 C 54 % 0 lf 1001,9 hPa 0,0 l/m 0,00 h 0,00 h 0 W/m 30,5 km/h (5 Bft) 97,13 %
01.03.2018 22:00 -3,3 C -3,6 C -4,8 C 56 % 0 lf 1001,6 hPa 0,0 l/m 0,00 h 0,00 h 0 W/m 28,2 km/h (4 Bft) 98,00 %
01.03.2018 23:00 -3,8 C -4,1 C -5,4 C 58 % 0 lf 1001,3 hPa 0,0 l/m 0,00 h 0,00 h 0 W/m 28,5 km/h (4 Bft) 92,20 %
02.03.2018 00:00 -4,4 C -4,4 C -5,9 C 60 % 0 lf 1000,8 hPa 0,0 l/m 0,00 h 0,00 h 0 W/m 31,1 km/h (5 Bft) 98,58 %
02.03.2018 01:00 -4,8 C -4,9 C -6,1 C 61 % 0 lf 1000,1 hPa 0,0 l/m 0,00 h 0,00 h 0 W/m 31,4 km/h (5 Bft) 96,65 %
02.03.2018 02:00 -5,2 C -5,0 C -6,1 C 62 % 0 lf 999,5 hPa 0,0 l/m 0,00 h 0,00 h 0 W/m 34,4 km/h (5 Bft) 96,58 %
02.03.2018 03:00 -5,3 C -5,0 C -6,1 C 63 % 0 lf 998,9 hPa 0,0 l/m 0,00 h 0,00 h 0 W/m 34,4 km/h (5 Bft) 95,30 %
02.03.2018 04:00 -5,5 C -5,6 C -6,4 C 64 % 0 lf 998,5 hPa 0,0 l/m 0,00 h 0,00 h 0 W/m 35,6 km/h (5 Bft) 96,94 %
02.03.2018 05:00 -5,8 C -6,1 C -6,7 C 65 % 0 lf 998,0 hPa 0,0 l/m 0,00 h 0,00 h 0 W/m 36,0 km/h (5 Bft) 96,54 %
02.03.2018 06:00 -6,1 C -6,1 C -7,1 C 66 % 0 lf 997,5 hPa 0,0 l/m 0,00 h 0,00 h 0 W/m 36,0 km/h (5 Bft) 97,00 %
02.03.2018 07:00 -6,0 C -6,1 C -6,6 C 66 % 0 lf 997,2 hPa 0,0 l/m 0,00 h 0,00 h 11 W/m 39,6 km/h (6 Bft) 96,93 %
02.03.2018 08:00 -5,8 C -5,4 C -5,9 C 66 % 0 lf 997,0 hPa 0,0 l/m 0,00 h 0,00 h 70 W/m 36,9 km/h (5 Bft) 93,69 %
02.03.2018 09:00 -5,3 C -4,3 C -4,7 C 65 % 0 lf 996,7 hPa 0,0 l/m 0,03 h 0,00 h 144 W/m 38,0 km/h (5 Bft) 97,22 %
02.03.2018 10:00 -4,2 C -3,0 C -2,8 C 62 % 0 lf 996,6 hPa 0,0 l/m 0,00 h 0,00 h 168 W/m 32,7 km/h (5 Bft) 98,51 %
02.03.2018 11:00 -3,3 C -2,2 C -1,9 C 60 % 0 lf 996,8 hPa 0,0 l/m 0,00 h 0,00 h 175 W/m 31,4 km/h (5 Bft) 95,51 %
02.03.2018 12:00 -1,9 C -0,2 C -0,1 C 58 % 0 lf 996,6 hPa 0,0 l/m 0,00 h 0,00 h 219 W/m 32,5 km/h (5 Bft) 94,77 %
02.03.2018 13:00 -0,5 C 0,8 C 1,1 C 55 % 0 lf 996,5 hPa 0,0 l/m 0,00 h 0,00 h 177 W/m 25,1 km/h (4 Bft) 98,50 %
02.03.2018 14:00 -0,3 C 0,3 C 0,2 C 53 % 0 lf 996,1 hPa 0,0 l/m 0,00 h 0,00 h 103 W/m 26,2 km/h (4 Bft) 94,74 %
02.03.2018 15:00 0,3 C 1,1 C 1,1 C 52 % 0 lf 995,6 hPa 0,0 l/m 0,00 h 0,00 h 149 W/m 32,3 km/h (5 Bft) 98,22 %
02.03.2018 16:00 0,6 C 1,0 C 0,8 C 52 % 0 lf 995,8 hPa 0,0 l/m 0,00 h 0,00 h 103 W/m 25,9 km/h (4 Bft) 95,23 %
02.03.2018 17:00 0,5 C 0,6 C -0,4 C 52 % 0 lf 996,1 hPa 0,0 l/m 0,00 h 0,00 h 33 W/m 21,5 km/h (4 Bft) 95,73 %
02.03.2018 18:00 0,1 C -0,2 C -1,1 C 56 % 0 lf 996,7 hPa 0,0 l/m 0,00 h 0,00 h 10 W/m 20,6 km/h (4 Bft) 98,03 %
02.03.2018 19:00 -0,6 C -0,9 C -1,8 C 67 % 0 lf 997,2 hPa 0,0 l/m 0,00 h 0,00 h 0 W/m 26,7 km/h (4 Bft) 97,52 %
02.03.2018 20:00 -1,2 C -1,4 C -2,3 C 70 % 0 lf 997,4 hPa 0,0 l/m 0,00 h 0,00 h 0 W/m 27,5 km/h (4 Bft) 93,53 %
02.03.2018 21:00 -2,0 C -2,3 C -3,2 C 80 % 0 lf 997,7 hPa 0,0 l/m 0,00 h 0,00 h 0 W/m 26,8 km/h (4 Bft) 98,30 %
02.03.2018 22:00 -2,6 C -2,8 C -3,9 C 87 % 2 lf 997,6 hPa 0,0 l/m 0,00 h 0,00 h 0 W/m 28,3 km/h (4 Bft) 96,04 %
02.03.2018 23:00 -2,9 C -3,0 C -3,9 C 91 % 3 lf 997,4 hPa 0,0 l/m 0,00 h 0,00 h 0 W/m 24,2 km/h (4 Bft) 96,77 %
03.03.2018 00:00 -2,9 C -2,9 C -3,9 C 92 % 3 lf 997,2 hPa 0,0 l/m 0,00 h 0,00 h 0 W/m 21,4 km/h (4 Bft) 96,89 %
03.03.2018 01:00 -3,0 C -2,9 C -3,7 C 93 % 3 lf 997,0 hPa 0,0 l/m 0,00 h 0,00 h 0 W/m 21,8 km/h (4 Bft) 94,37 %
03.03.2018 02:00 -2,9 C -2,8 C -3,3 C 94 % 3 lf 996,6 hPa 0,0 l/m 0,00 h 0,00 h 0 W/m 19,6 km/h (3 Bft) 97,79 %
03.03.2018 03:00 -2,8 C -2,8 C -2,9 C 94 % 3 lf 996,2 hPa 0,0 l/m 0,00 h 0,00 h 0 W/m 19,0 km/h (3 Bft) 96,52 %
03.03.2018 04:00 -2,7 C -2,8 C -2,8 C 94 % 3 lf 995,6 hPa 0,0 l/m 0,00 h 0,00 h 0 W/m 19,0 km/h (3 Bft) 97,29 %
03.03.2018 05:00 -2,7 C -2,8 C -2,8 C 94 % 3 lf 995,3 hPa 0,0 l/m 0,00 h 0,00 h 0 W/m 16,6 km/h (3 Bft) 94,44 %
03.03.2018 06:00 -2,6 C -2,4 C -2,8 C 95 % 3 lf 995,0 hPa 0,0 l/m 0,00 h 0,00 h 0 W/m 14,7 km/h (3 Bft) 97,14 %
03.03.2018 07:00 -2,4 C -2,2 C -2,6 C 95 % 3 lf 995,0 hPa 0,0 l/m 0,00 h 0,00 h 20 W/m 13,0 km/h (3 Bft) 97,17 %
03.03.2018 08:00 -2,0 C -1,4 C -1,8 C 95 % 4 lf 995,2 hPa 0,0 l/m 0,03 h 0,00 h 73 W/m 17,8 km/h (3 Bft) 96,26 %
03.03.2018 09:00 -1,0 C 0,9 C -1,0 C 94 % 15 lf 995,2 hPa 0,0 l/m 0,83 h 0,00 h 207 W/m 21,2 km/h (4 Bft) 95,45 %
03.03.2018 10:00 0,3 C 2,0 C -0,1 C 88 % 15 lf 995,4 hPa 0,4 l/m 1,00 h 0,00 h 307 W/m 23,9 km/h (4 Bft) 95,86 %
03.03.2018 11:00 1,2 C 3,6 C 2,6 C 83 % 0 lf 995,5 hPa 0,8 l/m 1,00 h 0,00 h 370 W/m 22,0 km/h (4 Bft) 96,62 %
03.03.2018 12:00 1,8 C 4,0 C 3,1 C 83 % 0 lf 995,6 hPa 0,8 l/m 0,97 h 0,00 h 336 W/m 22,1 km/h (4 Bft) 96,02 %
03.03.2018 13:00 2,5 C 5,2 C 2,5 C 82 % 0 lf 995,6 hPa 0,4 l/m 1,00 h 0,00 h 336 W/m 23,3 km/h (4 Bft) 95,90 %
03.03.2018 14:00 3,2 C 5,5 C 2,9 C 80 % 0 lf 995,5 hPa 0,2 l/m 1,00 h 0,00 h 273 W/m 21,1 km/h (4 Bft) 98,01 %
03.03.2018 15:00 3,5 C 6,3 C 3,5 C 78 % 0 lf 995,5 hPa 0,0 l/m 1,00 h 0,00 h 296 W/m 20,7 km/h (4 Bft) 93,69 %
03.03.2018 16:00 3,5 C 3,7 C 2,1 C 75 % 0 lf 995,8 hPa 0,0 l/m 0,40 h 0,00 h 125 W/m 19,8 km/h (3 Bft) 98,08 %
03.03.2018 17:00 2,1 C 1,9 C 0,2 C 76 % 0 lf 996,0 hPa 0,0 l/m 0,53 h 0,00 h 58 W/m 18,2 km/h (3 Bft) 98,22 %
03.03.2018 18:00 1,0 C 0,3 C -1,4 C 79 % 0 lf 996,2 hPa 0,0 l/m 0,07 h 0,00 h 11 W/m 11,2 km/h (2 Bft) 95,41 %
03.03.2018 19:00 0,3 C -0,2 C -2,0 C 84 % 0 lf 996,6 hPa 0,0 l/m 0,00 h 0,00 h 0 W/m 14,6 km/h (3 Bft) 95,73 %
03.03.2018 20:00 0,3 C 0,0 C -1,4 C 87 % 0 lf 996,7 hPa 0,0 l/m 0,00 h 0,00 h 0 W/m 26,6 km/h (4 Bft) 97,08 %
03.03.2018 21:00 0,2 C 0,0 C -1,7 C 89 % 0 lf 996,7 hPa 0,0 l/m 0,00 h 0,00 h 0 W/m 22,5 km/h (4 Bft) 96,37 %
03.03.2018 22:00 0,1 C 0,0 C -1,7 C 89 % 0 lf 996,7 hPa 0,0 l/m 0,00 h 0,00 h 0 W/m 23,1 km/h (4 Bft) 98,07 %
03.03.2018 23:00 0,5 C 0,5 C -0,8 C 89 % 0 lf 996,8 hPa 0,0 l/m 0,00 h 0,00 h 0 W/m 24,8 km/h (4 Bft) 94,17 %
04.03.2018 00:00 0,9 C 0,8 C -0,6 C 88 % 0 lf 997,0 hPa 0,0 l/m 0,00 h 0,23 h 0 W/m 20,5 km/h (4 Bft) 97,23 %
04.03.2018 01:00 1,0 C 0,6 C -0,6 C 89 % 1 lf 997,1 hPa 0,0 l/m 0,00 h 0,50 h 0 W/m 22,3 km/h (4 Bft) 96,72 %
04.03.2018 02:00 1,0 C 1,1 C -0,6 C 90 % 0 lf 996,9 hPa 0,0 l/m 0,00 h 0,00 h 0 W/m 20,4 km/h (4 Bft) 98,58 %
04.03.2018 03:00 1,2 C 1,1 C 0,0 C 90 % 0 lf 996,6 hPa 0,0 l/m 0,00 h 0,00 h 0 W/m 19,7 km/h (3 Bft) 94,05 %
04.03.2018 04:00 1,2 C 1,1 C 0,0 C 90 % 0 lf 996,3 hPa 0,0 l/m 0,00 h 0,00 h 0 W/m 18,3 km/h (3 Bft) 97,32 %
04.03.2018 05:00 1,4 C 1,4 C 0,0 C 91 % 0 lf 996,1 hPa 0,0 l/m 0,00 h 0,00 h 0 W/m 19,2 km/h (3 Bft) 96,94 %
04.03.2018 06:00 1,6 C 1,7 C 0,2 C 91 % 0 lf 996,0 hPa 0,0 l/m 0,00 h 0,00 h 0 W/m 19,0 km/h (3 Bft) 97,51 %
04.03.2018 07:00 1,7 C 1,8 C 0,3 C 91 % 0 lf 996,0 hPa 0,0 l/m 0,27 h 0,00 h 25 W/m 20,6 km/h (4 Bft) 94,34 %
04.03.2018 08:00 2,0 C 3,4 C 1,1 C 92 % 0 lf 996,1 hPa 0,0 l/m 0,40 h 0,00 h 110 W/m 21,5 km/h (4 Bft) 98,21 %
04.03.2018 09:00 3,2 C 5,5 C 3,2 C 91 % 0 lf 996,1 hPa 0,0 l/m 0,60 h 0,00 h 198 W/m 26,0 km/h (4 Bft) 96,58 %
04.03.2018 10:00 4,4 C 5,8 C 4,7 C 88 % 0 lf 996,1 hPa 0,0 l/m 0,23 h 0,00 h 195 W/m 23,1 km/h (4 Bft) 95,23 %
04.03.2018 11:00 5,7 C 9,3 C 7,0 C 86 % 0 lf 995,7 hPa 0,0 l/m 0,60 h 0,00 h 335 W/m 22,1 km/h (4 Bft) 95,56 %
04.03.2018 12:00 8,3 C 14,2 C 7,8 C 78 % 0 lf 995,3 hPa 0,0 l/m 1,00 h 0,00 h 558 W/m 24,6 km/h (4 Bft) 97,76 %
04.03.2018 13:00 9,9 C 15,8 C 8,1 C 73 % 0 lf 994,5 hPa 0,0 l/m 1,00 h 0,00 h 518 W/m 23,9 km/h (4 Bft) 96,40 %
04.03.2018 14:00 10,6 C 13,1 C 9,1 C 71 % 0 lf 993,7 hPa 0,0 l/m 0,83 h 0,00 h 298 W/m 25,1 km/h (4 Bft) 96,44 %
04.03.2018 15:00 10,3 C 10,8 C 9,1 C 72 % 0 lf 993,2 hPa 0,0 l/m 0,07 h 0,00 h 162 W/m 24,3 km/h (4 Bft) 95,66 %
04.03.2018 16:00 9,7 C 9,8 C 8,0 C 73 % 0 lf 992,6 hPa 0,0 l/m 0,00 h 0,00 h 93 W/m 22,8 km/h (4 Bft) 97,16 %
04.03.2018 17:00 9,3 C 9,0 C 6,8 C 75 % 0 lf 992,1 hPa 0,0 l/m 0,00 h 0,00 h 24 W/m 22,0 km/h (4 Bft) 95,45 %
04.03.2018 18:00 8,6 C 7,2 C 5,2 C 79 % 1 lf 991,9 hPa 0,2 l/m 0,00 h 0,30 h 5 W/m 19,9 km/h (4 Bft) 97,99 %
04.03.2018 19:00 7,6 C 6,3 C 4,3 C 84 % 2 lf 991,6 hPa 0,0 l/m 0,00 h 0,57 h 0 W/m 20,7 km/h (4 Bft) 93,63 %
04.03.2018 20:00 7,1 C 5,6 C 3,9 C 87 % 10 lf 990,7 hPa 0,4 l/m 0,00 h 0,67 h 0 W/m 23,7 km/h (4 Bft) 98,00 %
04.03.2018 21:00 6,7 C 5,5 C 3,9 C 88 % 1 lf 990,6 hPa 0,0 l/m 0,00 h 0,37 h 0 W/m 22,8 km/h (4 Bft) 98,00 %
04.03.2018 22:00 6,7 C 5,7 C 4,0 C 88 % 5 lf 991,3 hPa 0,0 l/m 0,00 h 0,40 h 0 W/m 23,1 km/h (4 Bft) 94,74 %
04.03.2018 23:00 7,3 C 6,1 C 4,4 C 89 % 0 lf 992,3 hPa 0,2 l/m 0,00 h 0,53 h 0 W/m 29,1 km/h (5 Bft) 95,65 %
Min-Datum _ 28.02.18 28.02.18 27.02.18 01.03.18 26.02.18 04.03.18 - - - - 26.02.18 28.02.18
_ Min-Zeit 07:12 06:07 07:14 14:06 00:00 20:44 - - - - 02:52 04:05
Minimum _ -8,3 C -9,4 C -10,0 C 40 % 0 lf 990,4 hPa - - - - 0,0 km/h (0 Bft) 3,51 %
Max-Datum _ 04.03.18 04.03.18 04.03.18 03.03.18 03.03.18 26.02.18 03.03.18 26.02.18 04.03.18 04.03.18 01.03.18 26.02.18
_ Max-Zeit 14:04 13:22 11:40 06:26 08:58 09:34 11:06 08:08 00:26 12:02 12:10 00:02
Maximum _ 10,7 C 17,2 C 10,0 C 95 % 15 lf 1029,1 hPa 0,8 l/m 0,07 h 0,03 h 695 W/m 60,8 km/h
O (7 Bft)
100,00 %
Durchschnitt _ -2,0 C -1,2 C -2,9 C 71 % 0 lf 1008,7 hPa #3,4 l/m #44:26 h #3:34 h 211 W/m 25,6 km/h (4 Bft) 96,35 %
© 2018 W. Hausmann